Time,TemperatureF,DewpointF,PressureIn,WindDirection,WindDirectionDegrees,WindSpeedMPH,WindSpeedGustMPH,Humidity,HourlyPrecipIn,Conditions,Clouds,dailyrainin,SoftwareType,DateUTC
2013-02-27 00:00:00,38.7,37.9,29.66,NNE,31,5.0,5.0,97,0.00,,,0.36,Wunderground v.1.15,2013-02-27 05:00:00,
2013-02-27 00:05:00,38.7,37.9,29.66,North,7,4.0,5.0,97,0.00,,,0.00,Wunderground v.1.15,2013-02-27 05:05:00,
2013-02-27 00:10:00,38.7,37.9,29.66,North,351,5.0,6.0,97,0.00,,,0.00,Wunderground v.1.15,2013-02-27 05:10:00,
2013-02-27 00:14:00,38.7,37.9,29.66,North,349,5.0,6.0,97,0.00,,,0.00,Wunderground v.1.15,2013-02-27 05:14:00,
2013-02-27 00:19:00,38.7,37.9,29.65,North,1,5.0,5.0,97,0.00,,,0.00,Wunderground v.1.15,2013-02-27 05:19:00,
2013-02-27 00:24:00,38.6,37.8,29.65,North,8,4.0,5.0,97,0.00,,,0.00,Wunderground v.1.15,2013-02-27 05:24:00,
2013-02-27 00:34:00,38.7,37.9,29.65,NE,40,5.0,8.0,97,0.00,,,0.00,Wunderground v.1.15,2013-02-27 05:34:00,
2013-02-27 00:39:00,38.7,37.9,29.64,NNE,25,6.0,8.0,97,0.00,,,0.00,Wunderground v.1.15,2013-02-27 05:39:00,
2013-02-27 00:44:00,38.6,37.8,29.64,NNE,20,7.0,8.0,97,0.00,,,0.00,Wunderground v.1.15,2013-02-27 05:44:00,
2013-02-27 00:49:00,38.6,37.8,29.63,NNE,30,6.0,9.0,97,0.00,,,0.00,Wunderground v.1.15,2013-02-27 05:49:00,
2013-02-27 00:54:00,38.6,37.8,29.63,NE,53,6.0,9.0,97,0.00,,,0.00,Wunderground v.1.15,2013-02-27 05:54:00,
2013-02-27 00:59:00,38.5,37.7,29.63,NNE,31,5.0,5.0,97,0.00,,,0.00,Wunderground v.1.15,2013-02-27 05:59:00,
2013-02-27 01:04:00,38.4,37.6,29.63,NNE,33,4.0,5.0,97,0.00,,,0.00,Wunderground v.1.15,2013-02-27 06:04:00,
2013-02-27 01:09:00,38.4,37.6,29.63,NNE,31,4.0,5.0,97,0.00,,,0.00,Wunderground v.1.15,2013-02-27 06:09:00,
2013-02-27 01:14:00,38.4,37.6,29.63,NE,36,4.0,5.0,97,0.00,,,0.00,Wunderground v.1.15,2013-02-27 06:14:00,
2013-02-27 01:19:00,38.5,37.7,29.63,NE,36,5.0,5.0,97,0.00,,,0.00,Wunderground v.1.15,2013-02-27 06:19:00,
2013-02-27 01:24:00,38.5,37.7,29.63,NNE,14,4.0,5.0,97,0.00,,,0.00,Wunderground v.1.15,2013-02-27 06:24:00,
2013-02-27 01:29:00,38.4,37.6,29.63,NNE,18,3.0,4.0,97,0.00,,,0.00,Wunderground v.1.15,2013-02-27 06:29:00,
2013-02-27 01:34:00,38.4,37.6,29.63,NW,304,3.0,4.0,97,0.00,,,0.00,Wunderground v.1.15,2013-02-27 06:34:00,
2013-02-27 01:39:00,38.4,37.6,29.63,NW,325,3.0,3.0,97,0.00,,,0.00,Wunderground v.1.15,2013-02-27 06:39:00,
2013-02-27 01:44:00,38.4,37.6,29.63,NW,316,2.0,3.0,97,0.00,,,0.00,Wunderground v.1.15,2013-02-27 06:44:00,
2013-02-27 01:49:00,38.4,37.6,29.63,North,359,1.0,1.0,97,0.00,,,0.00,Wunderground v.1.15,2013-02-27 06:49:00,
2013-02-27 01:54:00,38.3,37.5,29.62,NNE,27,2.0,3.0,97,0.00,,,0.00,Wunderground v.1.15,2013-02-27 06:54:00,
2013-02-27 02:00:00,38.3,37.5,29.63,NNW,327,2.0,2.0,97,0.00,,,0.00,Wunderground v.1.15,2013-02-27 07:00:00,
2013-02-27 02:04:00,38.3,37.5,29.62,North,4,1.0,2.0,97,0.00,,,0.00,Wunderground v.1.15,2013-02-27 07:04:00,
2013-02-27 02:09:00,38.3,37.5,29.63,North,360,1.0,2.0,97,0.00,,,0.00,Wunderground v.1.15,2013-02-27 07:09:00,
2013-02-27 02:15:00,38.3,37.5,29.63,NNE,13,2.0,2.0,97,0.00,,,0.00,Wunderground v.1.15,2013-02-27 07:15:00,
2013-02-27 02:20:00,38.3,37.5,29.62,NNE,15,2.0,5.0,97,0.00,,,0.01,Wunderground v.1.15,2013-02-27 07:20:00,
2013-02-27 02:25:00,38.2,37.4,29.61,NNE,21,3.0,5.0,97,0.00,,,0.01,Wunderground v.1.15,2013-02-27 07:25:00,
2013-02-27 02:30:00,38.2,37.4,29.61,NNE,30,5.0,6.0,97,0.00,,,0.01,Wunderground v.1.15,2013-02-27 07:30:00,
2013-02-27 02:35:00,38.1,37.3,29.61,North,359,6.0,6.0,97,0.00,,,0.01,Wunderground v.1.15,2013-02-27 07:35:00,
2013-02-27 02:40:00,38.0,37.2,29.62,NNE,29,5.0,5.0,97,0.00,,,0.01,Wunderground v.1.15,2013-02-27 07:40:00,
2013-02-27 02:45:00,38.0,37.2,29.62,NW,316,3.0,5.0,97,0.00,,,0.01,Wunderground v.1.15,2013-02-27 07:45:00,
2013-02-27 02:50:00,37.9,37.1,29.62,NW,314,2.0,2.0,97,0.00,,,0.01,Wunderground v.1.15,2013-02-27 07:50:00,
2013-02-27 02:55:00,37.9,37.1,29.62,NNE,30,1.0,2.0,97,0.00,,,0.01,Wunderground v.1.15,2013-02-27 07:55:00,
2013-02-27 02:59:00,37.9,37.1,29.62,NNE,30,1.0,1.0,97,0.00,,,0.01,Wunderground v.1.15,2013-02-27 07:59:00,
2013-02-27 03:04:00,37.9,37.1,29.62,NNE,30,0.0,1.0,97,0.00,,,0.01,Wunderground v.1.15,2013-02-27 08:04:00,
2013-02-27 03:09:00,37.9,37.1,29.62,NW,325,0.0,0.0,97,0.00,,,0.01,Wunderground v.1.15,2013-02-27 08:09:00,
2013-02-27 03:14:00,37.9,37.1,29.62,NW,325,1.0,1.0,97,0.00,,,0.01,Wunderground v.1.15,2013-02-27 08:14:00,
2013-02-27 03:19:00,37.9,37.1,29.61,NW,325,0.0,0.0,97,0.00,,,0.01,Wunderground v.1.15,2013-02-27 08:19:00,
2013-02-27 03:24:00,37.9,37.1,29.61,NW,325,0.0,0.0,97,0.00,,,0.01,Wunderground v.1.15,2013-02-27 08:24:00,
2013-02-27 03:29:00,37.8,37.0,29.61,NW,325,0.0,0.0,97,0.00,,,0.01,Wunderground v.1.15,2013-02-27 08:29:00,
2013-02-27 03:34:00,37.8,37.0,29.61,NW,325,0.0,0.0,97,0.00,,,0.01,Wunderground v.1.15,2013-02-27 08:34:00,
2013-02-27 03:39:00,37.8,37.0,29.61,NW,325,0.0,0.0,97,0.00,,,0.01,Wunderground v.1.15,2013-02-27 08:39:00,
2013-02-27 03:44:00,37.8,37.0,29.61,NNW,330,0.0,0.0,97,0.00,,,0.01,Wunderground v.1.15,2013-02-27 08:44:00,
2013-02-27 03:49:00,37.8,37.0,29.61,North,355,0.0,1.0,97,0.00,,,0.01,Wunderground v.1.15,2013-02-27 08:49:00,
2013-02-27 03:54:00,37.8,37.0,29.60,North,353,1.0,1.0,97,0.00,,,0.01,Wunderground v.1.15,2013-02-27 08:54:00,
2013-02-27 04:00:00,37.8,37.0,29.61,North,352,1.0,1.0,97,0.00,,,0.01,Wunderground v.1.15,2013-02-27 09:00:00,
2013-02-27 04:10:00,37.8,37.0,29.60,North,352,0.0,0.0,97,0.00,,,0.01,Wunderground v.1.15,2013-02-27 09:10:00,
2013-02-27 04:15:00,37.8,37.0,29.60,North,349,0.0,1.0,97,0.00,,,0.01,Wunderground v.1.15,2013-02-27 09:15:00,
2013-02-27 04:19:00,37.7,36.9,29.61,WNW,286,1.0,1.0,97,0.00,,,0.01,Wunderground v.1.15,2013-02-27 09:19:00,
2013-02-27 04:24:00,37.7,36.9,29.61,WNW,288,0.0,1.0,97,0.00,,,0.01,Wunderground v.1.15,2013-02-27 09:24:00,
2013-02-27 04:29:00,37.7,36.9,29.61,WNW,286,0.0,1.0,97,0.00,,,0.01,Wunderground v.1.15,2013-02-27 09:29:00,
2013-02-27 04:35:00,37.7,36.9,29.61,WNW,283,1.0,2.0,97,0.00,,,0.01,Wunderground v.1.15,2013-02-27 09:35:00,
2013-02-27 04:40:00,37.8,37.0,29.61,WNW,283,1.0,1.0,97,0.00,,,0.01,Wunderground v.1.15,2013-02-27 09:40:00,
2013-02-27 04:45:00,37.7,36.9,29.61,NNE,12,1.0,1.0,97,0.00,,,0.01,Wunderground v.1.15,2013-02-27 09:45:00,
2013-02-27 04:50:00,37.8,37.0,29.62,NNE,12,0.0,0.0,97,0.00,,,0.01,Wunderground v.1.15,2013-02-27 09:50:00,
2013-02-27 04:55:00,37.8,37.0,29.62,NNE,13,0.0,0.0,97,0.00,,,0.01,Wunderground v.1.15,2013-02-27 09:55:00,
2013-02-27 05:00:00,37.8,37.0,29.62,NNE,12,0.0,0.0,97,0.00,,,0.01,Wunderground v.1.15,2013-02-27 10:00:00,
2013-02-27 05:05:00,37.8,37.0,29.63,SW,234,0.0,0.0,97,0.00,,,0.01,Wunderground v.1.15,2013-02-27 10:05:00,
2013-02-27 05:09:00,37.8,37.0,29.63,SSW,198,0.0,0.0,97,0.00,,,0.01,Wunderground v.1.15,2013-02-27 10:09:00,
2013-02-27 05:14:00,37.7,36.9,29.63,SSW,198,0.0,0.0,97,0.00,,,0.01,Wunderground v.1.15,2013-02-27 10:14:00,
2013-02-27 05:19:00,37.7,36.9,29.62,ESE,107,1.0,1.0,97,0.00,,,0.01,Wunderground v.1.15,2013-02-27 10:19:00,
2013-02-27 05:24:00,37.7,36.9,29.62,ESE,115,1.0,1.0,97,0.00,,,0.01,Wunderground v.1.15,2013-02-27 10:24:00,
2013-02-27 05:29:00,37.5,36.7,29.62,SE,124,1.0,1.0,97,0.00,,,0.01,Wunderground v.1.15,2013-02-27 10:29:00,
2013-02-27 05:35:00,37.2,36.4,29.62,ESE,123,1.0,1.0,97,0.00,,,0.01,Wunderground v.1.15,2013-02-27 10:35:00,
2013-02-27 05:40:00,37.1,36.3,29.62,SE,129,1.0,1.0,97,0.00,,,0.01,Wunderground v.1.15,2013-02-27 10:40:00,
2013-02-27 05:45:00,37.0,36.2,29.62,SSE,155,1.0,2.0,97,0.00,,,0.01,Wunderground v.1.15,2013-02-27 10:45:00,
2013-02-27 05:49:00,36.9,36.1,29.61,SE,124,1.0,1.0,97,0.00,,,0.01,Wunderground v.1.15,2013-02-27 10:49:00,
2013-02-27 05:54:00,36.8,36.0,29.61,SE,146,1.0,1.0,97,0.00,,,0.01,Wunderground v.1.15,2013-02-27 10:54:00,
2013-02-27 06:00:00,36.8,36.0,29.61,SSW,192,1.0,2.0,97,0.00,,,0.01,Wunderground v.1.15,2013-02-27 11:00:00,
2013-02-27 06:05:00,36.8,36.0,29.62,WSW,246,1.0,2.0,97,0.00,,,0.01,Wunderground v.1.15,2013-02-27 11:05:00,
2013-02-27 06:10:00,36.8,36.0,29.62,SW,228,2.0,2.0,97,0.00,,,0.01,Wunderground v.1.15,2013-02-27 11:10:00,
2013-02-27 06:14:00,36.8,36.0,29.63,WSW,250,2.0,2.0,97,0.00,,,0.01,Wunderground v.1.15,2013-02-27 11:14:00,
2013-02-27 06:19:00,36.7,35.9,29.63,WSW,245,2.0,2.0,97,0.00,,,0.01,Wunderground v.1.15,2013-02-27 11:19:00,
2013-02-27 06:25:00,36.8,36.0,29.63,WSW,238,2.0,2.0,97,0.00,,,0.01,Wunderground v.1.15,2013-02-27 11:25:00,
2013-02-27 06:30:00,36.9,36.1,29.64,SW,236,2.0,2.0,97,0.00,,,0.01,Wunderground v.1.15,2013-02-27 11:30:00,
2013-02-27 06:35:00,36.9,36.1,29.63,SW,231,2.0,2.0,97,0.00,,,0.01,Wunderground v.1.15,2013-02-27 11:35:00,
2013-02-27 06:40:00,36.9,36.1,29.63,South,181,1.0,1.0,97,0.00,,,0.01,Wunderground v.1.15,2013-02-27 11:40:00,
2013-02-27 06:45:00,36.8,36.0,29.63,South,169,0.0,1.0,97,0.00,,,0.01,Wunderground v.1.15,2013-02-27 11:45:00,
2013-02-27 06:50:00,36.7,35.9,29.63,South,169,1.0,1.0,97,0.00,,,0.01,Wunderground v.1.15,2013-02-27 11:50:00,
2013-02-27 07:00:00,36.6,35.8,29.63,South,169,0.0,1.0,97,0.00,,,0.01,Wunderground v.1.15,2013-02-27 12:00:00,
2013-02-27 07:05:00,36.6,35.8,29.63,SE,135,0.0,1.0,97,0.00,,,0.01,Wunderground v.1.15,2013-02-27 12:05:00,
2013-02-27 07:10:00,36.5,35.7,29.63,SSE,152,1.0,1.0,97,0.00,,,0.01,Wunderground v.1.15,2013-02-27 12:10:00,
2013-02-27 07:15:00,36.5,35.7,29.63,WSW,257,2.0,2.0,97,0.00,,,0.01,Wunderground v.1.15,2013-02-27 12:15:00,
2013-02-27 07:19:00,36.5,35.7,29.64,SSW,212,2.0,4.0,97,0.00,,,0.01,Wunderground v.1.15,2013-02-27 12:19:00,
2013-02-27 07:25:00,36.4,35.6,29.64,SW,221,3.0,4.0,97,0.00,,,0.01,Wunderground v.1.15,2013-02-27 12:25:00,
2013-02-27 07:30:00,36.4,35.6,29.64,SW,221,3.0,3.0,97,0.00,,,0.01,Wunderground v.1.15,2013-02-27 12:30:00,
2013-02-27 07:34:00,36.4,35.6,29.65,SW,219,2.0,3.0,97,0.00,,,0.01,Wunderground v.1.15,2013-02-27 12:34:00,
2013-02-27 07:39:00,36.6,35.8,29.65,WSW,238,1.0,1.0,97,0.00,,,0.01,Wunderground v.1.15,2013-02-27 12:39:00,
2013-02-27 07:44:00,37.1,36.3,29.66,SSW,207,1.0,2.0,97,0.00,,,0.01,Wunderground v.1.15,2013-02-27 12:44:00,
2013-02-27 07:49:00,37.5,36.7,29.66,South,191,2.0,2.0,97,0.00,,,0.01,Wunderground v.1.15,2013-02-27 12:49:00,
2013-02-27 07:55:00,37.9,37.1,29.66,SSW,202,2.0,2.0,97,0.00,,,0.01,Wunderground v.1.15,2013-02-27 12:55:00,
2013-02-27 08:00:00,38.0,37.2,29.67,SSE,162,3.0,3.0,97,0.00,,,0.01,Wunderground v.1.15,2013-02-27 13:00:00,
2013-02-27 08:05:00,37.7,36.9,29.67,SE,125,2.0,3.0,97,0.00,,,0.01,Wunderground v.1.15,2013-02-27 13:05:00,
2013-02-27 08:09:00,37.4,36.6,29.67,SSW,195,2.0,2.0,97,0.00,,,0.01,Wunderground v.1.15,2013-02-27 13:09:00,
2013-02-27 08:14:00,37.5,36.7,29.67,ESE,121,2.0,3.0,97,0.00,,,0.01,Wunderground v.1.15,2013-02-27 13:14:00,
2013-02-27 08:19:00,37.6,36.8,29.67,SE,132,2.0,3.0,97,0.00,,,0.01,Wunderground v.1.15,2013-02-27 13:19:00,
2013-02-27 08:24:00,37.7,36.9,29.68,SE,125,3.0,3.0,97,0.00,,,0.01,Wunderground v.1.15,2013-02-27 13:24:00,
2013-02-27 08:29:00,37.9,37.1,29.68,South,177,3.0,3.0,97,0.00,,,0.01,Wunderground v.1.15,2013-02-27 13:29:00,
2013-02-27 08:34:00,38.3,37.5,29.68,ESE,115,2.0,3.0,97,0.00,,,0.01,Wunderground v.1.15,2013-02-27 13:34:00,
2013-02-27 08:40:00,38.7,37.9,29.67,SE,131,2.0,3.0,97,0.00,,,0.01,Wunderground v.1.15,2013-02-27 13:40:00,
2013-02-27 08:45:00,38.7,37.9,29.68,SSE,150,3.0,3.0,97,0.00,,,0.01,Wunderground v.1.15,2013-02-27 13:45:00,
2013-02-27 08:50:00,39.1,38.3,29.67,SSE,148,4.0,8.0,97,0.00,,,0.01,Wunderground v.1.15,2013-02-27 13:50:00,
2013-02-27 08:55:00,39.5,38.7,29.67,SSE,148,4.0,8.0,97,0.00,,,0.01,Wunderground v.1.15,2013-02-27 13:55:00,
2013-02-27 09:00:00,39.9,39.1,29.68,SSW,197,4.0,4.0,97,0.00,,,0.01,Wunderground v.1.15,2013-02-27 14:00:00,
2013-02-27 09:04:00,40.7,39.9,29.68,SSW,198,4.0,4.0,97,0.00,,,0.01,Wunderground v.1.15,2013-02-27 14:04:00,
2013-02-27 09:10:00,41.2,40.4,29.68,SSW,198,4.0,6.0,97,0.00,,,0.01,Wunderground v.1.15,2013-02-27 14:10:00,
2013-02-27 09:15:00,41.5,40.7,29.68,SSW,205,6.0,7.0,97,0.00,,,0.01,Wunderground v.1.15,2013-02-27 14:15:00,
2013-02-27 09:20:00,42.0,41.2,29.68,SSW,204,6.0,6.0,97,0.00,,,0.01,Wunderground v.1.15,2013-02-27 14:20:00,
2013-02-27 09:25:00,42.4,41.1,29.68,SSW,212,6.0,9.0,95,0.00,,,0.01,Wunderground v.1.15,2013-02-27 14:25:00,
2013-02-27 09:30:00,43.1,41.8,29.68,SE,125,6.0,6.0,95,0.00,,,0.01,Wunderground v.1.15,2013-02-27 14:30:00,
2013-02-27 09:35:00,43.2,41.0,29.68,SSE,155,5.0,6.0,92,0.00,,,0.01,Wunderground v.1.15,2013-02-27 14:35:00,
2013-02-27 09:40:00,43.4,41.2,29.68,SSW,207,5.0,8.0,92,0.00,,,0.01,Wunderground v.1.15,2013-02-27 14:40:00,
2013-02-27 09:44:00,43.6,41.4,29.67,South,186,5.0,8.0,92,0.00,,,0.01,Wunderground v.1.15,2013-02-27 14:44:00,
2013-02-27 09:49:00,43.6,41.1,29.67,SSW,208,6.0,6.0,91,0.00,,,0.01,Wunderground v.1.15,2013-02-27 14:49:00,
2013-02-27 09:55:00,43.8,41.1,29.68,SE,136,6.0,6.0,90,0.00,,,0.01,Wunderground v.1.15,2013-02-27 14:55:00,
2013-02-27 10:00:00,44.4,41.9,29.68,SSW,201,6.0,6.0,91,0.00,,,0.01,Wunderground v.1.15,2013-02-27 15:00:00,
2013-02-27 10:05:00,44.9,42.1,29.68,WSW,238,5.0,6.0,90,0.00,,,0.01,Wunderground v.1.15,2013-02-27 15:05:00,
2013-02-27 10:10:00,45.7,42.6,29.68,SSW,207,5.0,5.0,89,0.00,,,0.01,Wunderground v.1.15,2013-02-27 15:10:00,
2013-02-27 10:15:00,46.0,42.3,29.67,SSW,210,4.0,5.0,87,0.00,,,0.01,Wunderground v.1.15,2013-02-27 15:15:00,
2013-02-27 10:20:00,46.5,42.8,29.67,South,172,4.0,5.0,87,0.00,,,0.01,Wunderground v.1.15,2013-02-27 15:20:00,
2013-02-27 10:25:00,46.7,43.0,29.67,ESE,121,4.0,5.0,87,0.00,,,0.01,Wunderground v.1.15,2013-02-27 15:25:00,
2013-02-27 10:30:00,47.1,43.1,29.67,South,177,4.0,4.0,86,0.00,,,0.01,Wunderground v.1.15,2013-02-27 15:30:00,
2013-02-27 10:35:00,47.6,43.6,29.67,SW,233,4.0,5.0,86,0.00,,,0.01,Wunderground v.1.15,2013-02-27 15:35:00,
2013-02-27 10:40:00,48.6,43.4,29.67,WSW,242,5.0,8.0,82,0.00,,,0.01,Wunderground v.1.15,2013-02-27 15:40:00,
2013-02-27 10:45:00,49.2,39.1,29.67,WSW,243,8.0,13.0,68,0.00,,,0.01,Wunderground v.1.15,2013-02-27 15:45:00,
2013-02-27 10:50:00,49.1,39.4,29.68,WSW,255,10.0,12.0,69,0.00,,,0.01,Wunderground v.1.15,2013-02-27 15:50:00,
2013-02-27 10:55:00,49.3,38.0,29.68,WSW,253,10.0,12.0,65,0.00,,,0.01,Wunderground v.1.15,2013-02-27 15:55:00,
2013-02-27 11:00:00,49.5,39.4,29.68,West,264,11.0,11.0,68,0.00,,,0.01,Wunderground v.1.15,2013-02-27 16:00:00,
2013-02-27 11:05:00,49.2,37.1,29.68,West,270,11.0,11.0,63,0.00,,,0.01,Wunderground v.1.15,2013-02-27 16:05:00,
2013-02-27 11:10:00,48.9,36.4,29.68,WNW,290,10.0,10.0,62,0.00,,,0.01,Wunderground v.1.15,2013-02-27 16:10:00,
2013-02-27 11:15:00,49.0,36.5,29.68,West,281,9.0,10.0,62,0.00,,,0.01,Wunderground v.1.15,2013-02-27 16:15:00,
2013-02-27 11:20:00,49.3,38.4,29.69,WSW,250,7.0,10.0,66,0.00,,,0.01,Wunderground v.1.15,2013-02-27 16:20:00,
2013-02-27 11:25:00,49.5,37.4,29.68,West,264,8.0,10.0,63,0.00,,,0.01,Wunderground v.1.15,2013-02-27 16:25:00,
2013-02-27 11:30:00,49.9,38.2,29.69,WSW,256,8.0,8.0,64,0.00,,,0.01,Wunderground v.1.15,2013-02-27 16:30:00,
2013-02-27 11:34:00,50.3,36.5,29.69,WSW,249,9.0,9.0,59,0.00,,,0.01,Wunderground v.1.15,2013-02-27 16:34:00,
2013-02-27 11:39:00,50.2,35.5,29.69,West,264,11.0,12.0,57,0.00,,,0.01,Wunderground v.1.15,2013-02-27 16:39:00,
2013-02-27 11:44:00,50.0,35.8,29.69,West,269,12.0,12.0,58,0.00,,,0.01,Wunderground v.1.15,2013-02-27 16:44:00,
2013-02-27 11:49:00,49.7,34.6,29.69,SW,234,12.0,12.0,56,0.00,,,0.01,Wunderground v.1.15,2013-02-27 16:49:00,
2013-02-27 11:54:00,50.0,35.4,29.68,SW,224,11.0,12.0,57,0.00,,,0.01,Wunderground v.1.15,2013-02-27 16:54:00,
2013-02-27 11:59:00,50.4,35.7,29.68,WSW,238,11.0,13.0,57,0.00,,,0.01,Wunderground v.1.15,2013-02-27 16:59:00,
2013-02-27 12:04:00,50.6,36.4,29.68,WSW,255,11.0,14.0,58,0.00,,,0.01,Wunderground v.1.15,2013-02-27 17:04:00,
2013-02-27 12:09:00,50.5,35.4,29.68,West,262,12.0,12.0,56,0.00,,,0.01,Wunderground v.1.15,2013-02-27 17:09:00,
2013-02-27 12:14:00,50.5,34.5,29.68,SW,218,12.0,12.0,54,0.00,,,0.01,Wunderground v.1.15,2013-02-27 17:14:00,
2013-02-27 12:19:00,50.4,33.9,29.68,West,264,13.0,13.0,53,0.00,,,0.01,Wunderground v.1.15,2013-02-27 17:19:00,
2013-02-27 12:24:00,50.2,35.1,29.68,WSW,246,13.0,14.0,56,0.00,,,0.01,Wunderground v.1.15,2013-02-27 17:24:00,
2013-02-27 12:29:00,50.5,34.5,29.67,WSW,250,12.0,16.0,54,0.00,,,0.01,Wunderground v.1.15,2013-02-27 17:29:00,
2013-02-27 12:34:00,50.3,34.3,29.68,WSW,247,14.0,18.0,54,0.00,,,0.01,Wunderground v.1.15,2013-02-27 17:34:00,
2013-02-27 12:40:00,49.7,34.2,29.68,WSW,252,14.0,14.0,55,0.00,,,0.01,Wunderground v.1.15,2013-02-27 17:40:00,
2013-02-27 12:50:00,48.8,34.2,29.68,West,268,12.0,12.0,57,0.00,,,0.01,Wunderground v.1.15,2013-02-27 17:50:00,
2013-02-27 12:55:00,49.2,33.3,29.67,West,260,12.0,12.0,54,0.00,,,0.01,Wunderground v.1.15,2013-02-27 17:55:00,
2013-02-27 13:00:00,49.5,33.5,29.68,SW,233,13.0,14.0,54,0.00,,,0.01,Wunderground v.1.15,2013-02-27 18:00:00,
2013-02-27 13:05:00,49.7,33.7,29.67,SSW,197,13.0,14.0,54,0.00,,,0.01,Wunderground v.1.15,2013-02-27 18:05:00,
2013-02-27 13:10:00,50.1,35.0,29.68,WSW,243,12.0,13.0,56,0.00,,,0.01,Wunderground v.1.15,2013-02-27 18:10:00,
2013-02-27 13:15:00,49.5,33.5,29.68,SW,229,11.0,15.0,54,0.00,,,0.01,Wunderground v.1.15,2013-02-27 18:15:00,
2013-02-27 13:20:00,49.3,34.7,29.68,WSW,252,11.0,11.0,57,0.00,,,0.01,Wunderground v.1.15,2013-02-27 18:20:00,
2013-02-27 13:25:00,49.7,33.2,29.69,SW,228,11.0,12.0,53,0.00,,,0.01,Wunderground v.1.15,2013-02-27 18:25:00,
2013-02-27 13:30:00,49.8,34.3,29.69,West,271,10.0,10.0,55,0.00,,,0.01,Wunderground v.1.15,2013-02-27 18:30:00,
2013-02-27 13:35:00,50.0,33.5,29.69,West,262,9.0,10.0,53,0.00,,,0.01,Wunderground v.1.15,2013-02-27 18:35:00,
2013-02-27 13:40:00,49.8,34.3,29.69,SW,218,10.0,10.0,55,0.00,,,0.01,Wunderground v.1.15,2013-02-27 18:40:00,
2013-02-27 13:45:00,49.9,33.9,29.69,SW,224,9.0,10.0,54,0.00,,,0.01,Wunderground v.1.15,2013-02-27 18:45:00,
2013-02-27 13:50:00,49.4,33.4,29.69,West,260,6.0,6.0,54,0.00,,,0.01,Wunderground v.1.15,2013-02-27 18:50:00,
2013-02-27 13:55:00,49.2,33.7,29.69,SSW,212,6.0,6.0,55,0.00,,,0.01,Wunderground v.1.15,2013-02-27 18:55:00,
2013-02-27 14:00:00,49.1,33.6,29.69,WSW,246,7.0,12.0,55,0.00,,,0.01,Wunderground v.1.15,2013-02-27 19:00:00,
2013-02-27 14:05:00,50.0,34.0,29.68,WSW,252,9.0,12.0,54,0.00,,,0.01,Wunderground v.1.15,2013-02-27 19:05:00,
2013-02-27 14:10:00,50.3,33.8,29.68,WSW,238,9.0,9.0,53,0.00,,,0.01,Wunderground v.1.15,2013-02-27 19:10:00,
2013-02-27 14:15:00,50.3,33.3,29.68,West,273,9.0,9.0,52,0.00,,,0.01,Wunderground v.1.15,2013-02-27 19:15:00,
2013-02-27 14:20:00,50.4,33.9,29.68,SW,222,8.0,10.0,53,0.00,,,0.01,Wunderground v.1.15,2013-02-27 19:20:00,
2013-02-27 14:25:00,49.9,33.4,29.67,WSW,256,6.0,10.0,53,0.00,,,0.01,Wunderground v.1.15,2013-02-27 19:25:00,
2013-02-27 14:35:00,49.9,33.9,29.67,West,280,7.0,7.0,54,0.00,,,0.01,Wunderground v.1.15,2013-02-27 19:35:00,
2013-02-27 14:40:00,50.3,34.3,29.67,West,271,7.0,7.0,54,0.00,,,0.01,Wunderground v.1.15,2013-02-27 19:40:00,
2013-02-27 14:45:00,50.4,34.4,29.67,WSW,250,6.0,7.0,54,0.00,,,0.01,Wunderground v.1.15,2013-02-27 19:45:00,
2013-02-27 14:50:00,50.2,34.6,29.67,West,270,7.0,11.0,55,0.00,,,0.01,Wunderground v.1.15,2013-02-27 19:50:00,
2013-02-27 14:55:00,49.8,33.8,29.66,West,269,9.0,13.0,54,0.00,,,0.01,Wunderground v.1.15,2013-02-27 19:55:00,
2013-02-27 15:00:00,49.4,33.0,29.66,SSW,210,11.0,11.0,53,0.00,,,0.01,Wunderground v.1.15,2013-02-27 20:00:00,
2013-02-27 15:10:00,49.1,33.2,29.67,WSW,240,10.0,10.0,54,0.00,,,0.01,Wunderground v.1.15,2013-02-27 20:10:00,
2013-02-27 15:15:00,49.1,32.7,29.67,West,269,10.0,11.0,53,0.00,,,0.01,Wunderground v.1.15,2013-02-27 20:15:00,
2013-02-27 15:20:00,48.9,32.5,29.67,WSW,255,11.0,11.0,53,0.00,,,0.01,Wunderground v.1.15,2013-02-27 20:20:00,
2013-02-27 15:25:00,48.7,32.8,29.67,WSW,255,11.0,11.0,54,0.00,,,0.01,Wunderground v.1.15,2013-02-27 20:25:00,
2013-02-27 15:30:00,48.7,32.8,29.67,WSW,247,10.0,10.0,54,0.00,,,0.01,Wunderground v.1.15,2013-02-27 20:30:00,
2013-02-27 15:35:00,48.7,33.2,29.67,WNW,284,9.0,11.0,55,0.00,,,0.01,Wunderground v.1.15,2013-02-27 20:35:00,
2013-02-27 15:40:00,48.3,33.3,29.67,WSW,245,10.0,12.0,56,0.00,,,0.01,Wunderground v.1.15,2013-02-27 20:40:00,
2013-02-27 15:50:00,48.1,33.6,29.68,West,262,8.0,8.0,57,0.00,,,0.01,Wunderground v.1.15,2013-02-27 20:50:00,
2013-02-27 15:55:00,47.9,33.8,29.68,West,263,8.0,8.0,58,0.00,,,0.01,Wunderground v.1.15,2013-02-27 20:55:00,
2013-02-27 16:00:00,47.7,33.2,29.68,West,276,8.0,9.0,57,0.00,,,0.01,Wunderground v.1.15,2013-02-27 21:00:00,
2013-02-27 16:05:00,47.5,33.0,29.68,West,270,9.0,9.0,57,0.00,,,0.01,Wunderground v.1.15,2013-02-27 21:05:00,
2013-02-27 16:10:00,47.5,33.0,29.67,WSW,245,7.0,7.0,57,0.00,,,0.01,Wunderground v.1.15,2013-02-27 21:10:00,
2013-02-27 16:15:00,47.5,32.6,29.67,West,260,6.0,7.0,56,0.00,,,0.01,Wunderground v.1.15,2013-02-27 21:15:00,
2013-02-27 16:20:00,47.4,32.9,29.67,WNW,290,6.0,6.0,57,0.00,,,0.01,Wunderground v.1.15,2013-02-27 21:20:00,
2013-02-27 16:25:00,47.4,33.4,29.68,West,265,6.0,7.0,58,0.00,,,0.01,Wunderground v.1.15,2013-02-27 21:25:00,
2013-02-27 16:30:00,47.4,33.4,29.68,NW,305,7.0,7.0,58,0.00,,,0.01,Wunderground v.1.15,2013-02-27 21:30:00,
2013-02-27 16:35:00,47.3,33.3,29.68,West,268,7.0,7.0,58,0.00,,,0.01,Wunderground v.1.15,2013-02-27 21:35:00,
2013-02-27 16:40:00,47.8,32.9,29.67,West,260,7.0,7.0,56,0.00,,,0.01,Wunderground v.1.15,2013-02-27 21:40:00,
2013-02-27 16:50:00,48.0,33.0,29.67,West,268,7.0,10.0,56,0.00,,,0.01,Wunderground v.1.15,2013-02-27 21:50:00,
2013-02-27 17:00:00,47.7,32.8,29.68,West,267,6.0,7.0,56,0.00,,,0.01,Wunderground v.1.15,2013-02-27 22:00:00,
2013-02-27 17:05:00,47.3,33.3,29.68,WNW,302,5.0,7.0,58,0.00,,,0.01,Wunderground v.1.15,2013-02-27 22:05:00,
2013-02-27 17:10:00,47.2,33.2,29.68,West,274,5.0,5.0,58,0.00,,,0.01,Wunderground v.1.15,2013-02-27 22:10:00,
2013-02-27 17:15:00,47.2,32.7,29.68,West,268,5.0,5.0,57,0.00,,,0.01,Wunderground v.1.15,2013-02-27 22:15:00,
2013-02-27 17:20:00,47.1,32.6,29.68,West,274,4.0,4.0,57,0.00,,,0.01,Wunderground v.1.15,2013-02-27 22:20:00,
2013-02-27 17:25:00,47.1,32.6,29.68,West,269,4.0,4.0,57,0.00,,,0.01,Wunderground v.1.15,2013-02-27 22:25:00,
2013-02-27 17:30:00,46.8,33.2,29.68,West,277,4.0,4.0,59,0.00,,,0.01,Wunderground v.1.15,2013-02-27 22:30:00,
2013-02-27 17:35:00,46.6,33.4,29.69,West,263,4.0,4.0,60,0.00,,,0.01,Wunderground v.1.15,2013-02-27 22:35:00,
2013-02-27 17:40:00,46.4,33.3,29.69,West,275,2.0,2.0,60,0.00,,,0.01,Wunderground v.1.15,2013-02-27 22:40:00,
2013-02-27 17:45:00,46.4,32.4,29.69,WSW,253,2.0,2.0,58,0.00,,,0.01,Wunderground v.1.15,2013-02-27 22:45:00,
2013-02-27 17:50:00,46.3,32.7,29.69,WNW,284,2.0,2.0,59,0.00,,,0.01,Wunderground v.1.15,2013-02-27 22:50:00,
2013-02-27 17:55:00,46.1,33.0,29.69,West,270,1.0,2.0,60,0.00,,,0.01,Wunderground v.1.15,2013-02-27 22:55:00,
2013-02-27 18:00:00,45.8,32.7,29.69,West,267,1.0,2.0,60,0.00,,,0.01,Wunderground v.1.15,2013-02-27 23:00:00,
2013-02-27 18:05:00,45.6,32.5,29.69,West,270,1.0,2.0,60,0.00,,,0.01,Wunderground v.1.15,2013-02-27 23:05:00,
2013-02-27 18:10:00,45.5,32.8,29.70,West,273,1.0,2.0,61,0.00,,,0.01,Wunderground v.1.15,2013-02-27 23:10:00,
2013-02-27 18:15:00,45.3,33.4,29.70,West,260,1.0,2.0,63,0.00,,,0.01,Wunderground v.1.15,2013-02-27 23:15:00,
2013-02-27 18:20:00,45.2,32.9,29.70,West,264,1.0,2.0,62,0.00,,,0.01,Wunderground v.1.15,2013-02-27 23:20:00,
2013-02-27 18:25:00,45.3,32.6,29.70,West,270,2.0,2.0,61,0.00,,,0.01,Wunderground v.1.15,2013-02-27 23:25:00,
2013-02-27 18:30:00,45.3,32.6,29.70,WSW,252,3.0,3.0,61,0.00,,,0.01,Wunderground v.1.15,2013-02-27 23:30:00,
2013-02-27 18:35:00,45.5,32.8,29.70,West,273,3.0,3.0,61,0.00,,,0.01,Wunderground v.1.15,2013-02-27 23:35:00,
2013-02-27 18:40:00,45.4,33.1,29.70,West,260,3.0,3.0,62,0.00,,,0.01,Wunderground v.1.15,2013-02-27 23:40:00,
2013-02-27 18:45:00,45.3,32.6,29.71,West,275,3.0,5.0,61,0.00,,,0.01,Wunderground v.1.15,2013-02-27 23:45:00,
2013-02-27 18:50:00,45.5,32.8,29.71,West,264,4.0,4.0,61,0.00,,,0.01,Wunderground v.1.15,2013-02-27 23:50:00,
2013-02-27 18:55:00,45.9,32.4,29.71,West,263,5.0,6.0,59,0.00,,,0.01,Wunderground v.1.15,2013-02-27 23:55:00,
2013-02-27 19:00:00,46.0,32.5,29.71,West,271,5.0,5.0,59,0.00,,,0.01,Wunderground v.1.15,2013-02-28 00:00:00,
2013-02-27 19:10:00,45.7,32.6,29.71,West,262,5.0,5.0,60,0.00,,,0.01,Wunderground v.1.15,2013-02-28 00:10:00,
2013-02-27 19:15:00,45.7,32.6,29.71,WSW,256,5.0,5.0,60,0.00,,,0.01,Wunderground v.1.15,2013-02-28 00:15:00,
2013-02-27 19:20:00,45.7,32.6,29.71,West,271,5.0,5.0,60,0.00,,,0.01,Wunderground v.1.15,2013-02-28 00:20:00,
2013-02-27 19:25:00,45.6,32.5,29.71,West,264,4.0,5.0,60,0.00,,,0.01,Wunderground v.1.15,2013-02-28 00:25:00,
2013-02-27 19:30:00,45.7,32.6,29.71,West,263,5.0,5.0,60,0.00,,,0.01,Wunderground v.1.15,2013-02-28 00:30:00,
2013-02-27 19:35:00,45.6,32.5,29.71,West,268,4.0,5.0,60,0.00,,,0.01,Wunderground v.1.15,2013-02-28 00:35:00,
2013-02-27 19:40:00,45.4,32.3,29.71,West,260,3.0,3.0,60,0.00,,,0.01,Wunderground v.1.15,2013-02-28 00:40:00,
2013-02-27 19:45:00,45.3,32.6,29.71,West,266,3.0,3.0,61,0.00,,,0.01,Wunderground v.1.15,2013-02-28 00:45:00,
2013-02-27 19:50:00,45.4,32.7,29.70,West,263,3.0,3.0,61,0.00,,,0.01,Wunderground v.1.15,2013-02-28 00:50:00,
2013-02-27 19:55:00,45.3,32.6,29.71,WSW,245,2.0,3.0,61,0.00,,,0.01,Wunderground v.1.15,2013-02-28 00:55:00,
2013-02-27 20:00:00,45.3,32.6,29.70,SW,234,1.0,1.0,61,0.00,,,0.01,Wunderground v.1.15,2013-02-28 01:00:00,
2013-02-27 20:05:00,45.2,32.5,29.70,SSW,198,1.0,1.0,61,0.00,,,0.01,Wunderground v.1.15,2013-02-28 01:05:00,
2013-02-27 20:10:00,45.0,32.8,29.70,SSW,201,0.0,0.0,62,0.00,,,0.01,Wunderground v.1.15,2013-02-28 01:10:00,
2013-02-27 20:15:00,44.8,32.6,29.70,SSW,201,0.0,1.0,62,0.00,,,0.01,Wunderground v.1.15,2013-02-28 01:15:00,
2013-02-27 20:20:00,44.7,32.5,29.70,SSW,201,1.0,1.0,62,0.00,,,0.01,Wunderground v.1.15,2013-02-28 01:20:00,
2013-02-27 20:25:00,44.5,33.1,29.70,SSW,205,1.0,1.0,64,0.00,,,0.01,Wunderground v.1.15,2013-02-28 01:25:00,
2013-02-27 20:30:00,44.4,33.4,29.70,SSW,212,1.0,1.0,65,0.00,,,0.01,Wunderground v.1.15,2013-02-28 01:30:00,
2013-02-27 20:40:00,44.0,33.0,29.69,SSW,212,0.0,0.0,65,0.00,,,0.01,Wunderground v.1.15,2013-02-28 01:40:00,
2013-02-27 20:45:00,43.7,33.5,29.69,SSW,212,0.0,0.0,67,0.00,,,0.01,Wunderground v.1.15,2013-02-28 01:45:00,
2013-02-27 20:50:00,43.4,33.9,29.69,ESE,114,0.0,1.0,69,0.00,,,0.01,Wunderground v.1.15,2013-02-28 01:50:00,
2013-02-27 20:55:00,43.2,33.7,29.69,SE,131,0.0,1.0,69,0.00,,,0.01,Wunderground v.1.15,2013-02-28 01:55:00,
2013-02-27 21:00:00,43.1,34.0,29.69,SE,131,1.0,1.0,70,0.00,,,0.01,Wunderground v.1.15,2013-02-28 02:00:00,
2013-02-27 21:05:00,43.1,34.0,29.69,SSW,193,1.0,1.0,70,0.00,,,0.01,Wunderground v.1.15,2013-02-28 02:05:00,
2013-02-27 21:10:00,43.1,34.0,29.69,WSW,257,1.0,1.0,70,0.00,,,0.01,Wunderground v.1.15,2013-02-28 02:10:00,
2013-02-27 21:15:00,42.9,34.1,29.68,WSW,242,1.0,1.0,71,0.00,,,0.01,Wunderground v.1.15,2013-02-28 02:15:00,
2013-02-27 21:20:00,42.9,34.5,29.68,SW,215,1.0,1.0,72,0.00,,,0.01,Wunderground v.1.15,2013-02-28 02:20:00,
2013-02-27 21:25:00,42.7,34.3,29.67,SW,216,0.0,1.0,72,0.00,,,0.01,Wunderground v.1.15,2013-02-28 02:25:00,
2013-02-27 21:30:00,42.5,34.5,29.67,SW,216,0.0,1.0,73,0.00,,,0.01,Wunderground v.1.15,2013-02-28 02:30:00,
2013-02-27 21:35:00,42.4,34.0,29.67,WSW,247,1.0,1.0,72,0.00,,,0.01,Wunderground v.1.15,2013-02-28 02:35:00,
2013-02-27 21:40:00,42.1,34.1,29.67,WSW,249,1.0,1.0,73,0.00,,,0.01,Wunderground v.1.15,2013-02-28 02:40:00,
2013-02-27 21:45:00,42.0,34.3,29.67,WSW,250,1.0,1.0,74,0.00,,,0.01,Wunderground v.1.15,2013-02-28 02:45:00,
2013-02-27 21:50:00,41.9,34.2,29.67,West,275,1.0,1.0,74,0.00,,,0.01,Wunderground v.1.15,2013-02-28 02:50:00,
2013-02-27 21:55:00,41.8,34.1,29.68,West,264,1.0,1.0,74,0.00,,,0.01,Wunderground v.1.15,2013-02-28 02:55:00,
2013-02-27 22:00:00,41.7,34.0,29.68,West,264,1.0,1.0,74,0.00,,,0.01,Wunderground v.1.15,2013-02-28 03:00:00,
2013-02-27 22:05:00,41.8,34.1,29.68,WSW,255,1.0,2.0,74,0.00,,,0.01,Wunderground v.1.15,2013-02-28 03:05:00,
2013-02-27 22:10:00,42.0,34.0,29.68,West,266,2.0,2.0,73,0.00,,,0.01,Wunderground v.1.15,2013-02-28 03:10:00,
2013-02-27 22:15:00,42.2,34.2,29.68,West,264,1.0,2.0,73,0.00,,,0.01,Wunderground v.1.15,2013-02-28 03:15:00,
2013-02-27 22:20:00,42.2,33.8,29.68,WSW,258,1.0,2.0,72,0.00,,,0.01,Wunderground v.1.15,2013-02-28 03:20:00,
2013-02-27 22:25:00,42.3,33.9,29.68,WSW,255,2.0,3.0,72,0.00,,,0.01,Wunderground v.1.15,2013-02-28 03:25:00,
2013-02-27 22:30:00,42.3,33.9,29.68,SW,225,3.0,3.0,72,0.00,,,0.01,Wunderground v.1.15,2013-02-28 03:30:00,
2013-02-27 22:35:00,42.4,34.0,29.68,WSW,249,3.0,3.0,72,0.00,,,0.01,Wunderground v.1.15,2013-02-28 03:35:00,
2013-02-27 22:40:00,42.4,34.4,29.68,WSW,248,3.0,3.0,73,0.00,,,0.01,Wunderground v.1.15,2013-02-28 03:40:00,
2013-02-27 22:45:00,42.5,34.5,29.68,West,259,3.0,3.0,73,0.00,,,0.01,Wunderground v.1.15,2013-02-28 03:45:00,
2013-02-27 22:50:00,42.4,34.4,29.68,WSW,245,3.0,3.0,73,0.00,,,0.01,Wunderground v.1.15,2013-02-28 03:50:00,
2013-02-27 22:55:00,42.5,34.5,29.68,WSW,248,3.0,3.0,73,0.00,,,0.01,Wunderground v.1.15,2013-02-28 03:55:00,
2013-02-27 23:00:00,42.5,34.5,29.67,SW,235,2.0,2.0,73,0.00,,,0.01,Wunderground v.1.15,2013-02-28 04:00:00,
2013-02-27 23:05:00,42.5,34.5,29.67,SSE,162,0.0,2.0,73,0.00,,,0.01,Wunderground v.1.15,2013-02-28 04:05:00,
2013-02-27 23:10:00,42.0,35.0,29.67,NE,47,1.0,2.0,76,0.00,,,0.01,Wunderground v.1.15,2013-02-28 04:10:00,
2013-02-27 23:15:00,41.4,35.1,29.67,North,6,2.0,2.0,78,0.00,,,0.01,Wunderground v.1.15,2013-02-28 04:15:00,
2013-02-27 23:20:00,41.2,35.2,29.67,North,359,2.0,3.0,79,0.00,,,0.01,Wunderground v.1.15,2013-02-28 04:20:00,
2013-02-27 23:25:00,41.2,34.9,29.67,NNE,33,2.0,3.0,78,0.00,,,0.01,Wunderground v.1.15,2013-02-28 04:25:00,
2013-02-27 23:30:00,41.3,34.6,29.67,NNE,32,1.0,1.0,77,0.00,,,0.01,Wunderground v.1.15,2013-02-28 04:30:00,
2013-02-27 23:35:00,41.4,34.7,29.66,NNE,25,0.0,1.0,77,0.00,,,0.01,Wunderground v.1.15,2013-02-28 04:35:00,
2013-02-27 23:40:00,41.5,34.5,29.66,NNE,25,0.0,1.0,76,0.00,,,0.01,Wunderground v.1.15,2013-02-28 04:40:00,
2013-02-27 23:45:00,41.7,34.4,29.66,WNW,283,1.0,1.0,75,0.00,,,0.01,Wunderground v.1.15,2013-02-28 04:45:00,
2013-02-27 23:50:00,41.8,34.5,29.65,WNW,283,1.0,1.0,75,0.00,,,0.01,Wunderground v.1.15,2013-02-28 04:50:00,
2013-02-27 23:55:00,41.7,34.4,29.65,West,266,1.0,2.0,75,0.00,,,0.01,Wunderground v.1.15,2013-02-28 04:55:00,